Flight Track Log - Related Links

Times and Time Zones

All times are in EDT time to prevent confusion due to time zone crossing. See the WIG7417 flight status page for this flight to view local times or setup timezone preferences in your user account.


Time Position Orientation Groundspeed Altitude Reporting Facility
EDT Latitude Longitude Course Direction KTS MPH feet Rate Location/Type
Wed 07:34:00 PM 44.5295 -73.6852 216° Southwest  Level Estimated
Wed 07:35:00 PM 44.5092 -73.7214 232° Southwest  Level Estimated
Wed 07:35:16 PM 44.6650 -73.6806 231° Southwest 125 144 7,500  Level Boston Center
Wed 07:36:00 PM 44.4887 -73.7572 231° Southwest  Level FlightAware Approximate
Wed 07:36:16 PM 44.6439 -73.7181 232° Southwest 125 144 8,400  Level Boston Center
Wed 07:37:00 PM 44.4681 -73.7929 231° Southwest  Level FlightAware Approximate
Wed 07:37:16 PM 44.6225 -73.7556 231° Southwest 130 150 9,100  Level Boston Center
Wed 07:38:00 PM 44.4476 -73.8287 231° Southwest  Level FlightAware Approximate
Wed 07:38:14 PM 44.5950 -73.7956 226° Southwest 130 150 10,000  Level Boston Center
Wed 07:39:00 PM 44.4270 -73.8644 231° Southwest  Level FlightAware Approximate
Wed 07:39:15 PM 44.5675 -73.8417 230° Southwest 142 163 10,100  Level Boston Center
Wed 07:40:15 PM 44.5419 -73.8906 234° Southwest 154 177 10,000 -50 Descending Boston Center
Wed 07:41:16 PM 44.5100 -73.9364 226° Southwest 154 177 10,000 50 Level Boston Center
Wed 07:42:16 PM 44.4844 -73.9764 228° Southwest 160 184 10,100 51 Climbing Boston Center
Wed 07:43:14 PM 44.4567 -74.0253 231° Southwest 160 184 10,100  Level Boston Center
Wed 07:44:14 PM 44.4247 -74.0708 226° Southwest 160 184 10,100  Level Boston Center
Wed 07:45:16 PM 44.3969 -74.1164 230° Southwest 160 184 10,100 -50 Level Boston Center
Wed 07:46:15 PM 44.3653 -74.1592 224° Southwest 160 184 10,000 -50 Descending Boston Center
Wed 07:47:16 PM 44.3372 -74.2078 231° Southwest 160 184 10,000  Level Boston Center
Wed 07:48:14 PM 44.3094 -74.2533 230° Southwest 160 184 10,000  Level Boston Center
Wed 07:49:15 PM 44.2817 -74.3017 231° Southwest 160 184 10,000  Level Boston Center
Wed 07:50:16 PM 44.2517 -74.3472 227° Southwest 160 184 10,000  Level Boston Center
Wed 07:51:17 PM 44.2217 -74.3956 229° Southwest 160 184 10,000  Level Boston Center
Wed 07:52:14 PM 44.1939 -74.4408 229° Southwest 160 184 10,000  Level Boston Center
Wed 07:53:15 PM 44.1639 -74.4861 227° Southwest 160 184 10,000  Level Boston Center
Wed 07:54:16 PM 44.1361 -74.5317 230° Southwest 160 184 10,000  Level Boston Center
Wed 07:55:16 PM 44.1061 -74.5767 227° Southwest 160 184 10,000  Level Boston Center
Wed 07:56:14 PM 44.0761 -74.6219 227° Southwest 160 184 10,000  Level Boston Center
Wed 07:57:15 PM 44.0481 -74.6700 231° Southwest 160 184 10,000  Level Boston Center
Wed 07:58:16 PM 44.0181 -74.7122 225° Southwest 160 184 10,000  Level Boston Center
Wed 07:59:14 PM 43.9900 -74.7603 231° Southwest 160 184 10,000  Level Boston Center
Wed 08:00:14 PM 43.9619 -74.8053 229° Southwest 155 178 10,000  Level Boston Center
Wed 08:01:16 PM 43.9339 -74.8531 231° Southwest 160 184 10,000  Level Boston Center
Wed 08:02:15 PM 43.9039 -74.8953 225° Southwest 160 184 10,000  Level Boston Center
Wed 08:03:16 PM 43.8736 -74.9431 229° Southwest 160 184 10,000  Level Boston Center
Wed 08:03:40 PM 43.8628 -74.9656 236° Southwest 159 183 10,000  Level Boston Center
Wed 08:04:16 PM 43.8433 -74.9878 220° Southwest 160 184 10,000  Level Boston Center
Wed 08:04:22 PM 43.8433 -74.9906 270° West 159 183 10,000  Level Boston Center
Wed 08:05:14 PM 43.8175 -75.0328 230° Southwest 160 184 10,000  Level Boston Center
Wed 08:05:23 PM 43.8153 -75.0356 222° Southwest 159 183 10,000  Level Boston Center
Wed 08:06:15 PM 43.7850 -75.0803 227° Southwest 160 184 10,000 103 Level Boston Center
Wed 08:06:21 PM 43.7783 -75.0942 236° Southwest 164 189 10,100  Climbing Boston Center
Wed 08:07:15 PM 43.7569 -75.1250 226° Southwest 160 184 10,000  Descending Boston Center
Wed 08:07:21 PM 43.7483 -75.1389 229° Southwest 166 191 10,100  Climbing Boston Center
Wed 08:08:16 PM 43.7286 -75.1725 231° Southwest 160 184 10,000  Descending Boston Center
Wed 08:08:25 PM 43.7178 -75.1864 223° Southwest 160 184 10,100  Climbing Boston Center
Wed 08:09:16 PM 43.6983 -75.2172 229° Southwest 160 184 10,000  Descending Boston Center
Wed 08:09:19 PM 43.6919 -75.2256 223° Southwest 159 183 10,100  Climbing Boston Center
Wed 08:10:16 PM 43.6703 -75.2647 233° Southwest 160 184 10,000  Descending Boston Center
Wed 08:10:19 PM 43.6617 -75.2728 214° Southwest 161 185 10,100  Climbing Boston Center
Wed 08:11:15 PM 43.6400 -75.3092 231° Southwest 160 184 10,000  Descending Boston Center
Wed 08:11:18 PM 43.6292 -75.3200 216° Southwest 161 185 10,100  Climbing Boston Center
Wed 08:12:16 PM 43.6094 -75.3564 233° Southwest 160 184 10,000  Descending Boston Center
Wed 08:12:19 PM 43.6008 -75.3703 229° Southwest 162 186 10,100  Climbing Boston Center
Wed 08:13:16 PM 43.5792 -75.4039 228° Southwest 160 184 10,000  Descending Boston Center
Wed 08:13:19 PM 43.5706 -75.4147 222° Southwest 162 186 10,100  Climbing Boston Center
Wed 08:14:14 PM 43.5508 -75.4511 233° Southwest 160 184 10,000  Descending Boston Center
Wed 08:14:20 PM 43.5381 -75.4619 212° Southwest 163 188 10,100 91 Climbing Boston Center
Wed 08:15:20 PM 43.5075 -75.5061 226° Southwest 163 188 10,100 -99 Level Boston Center
Wed 08:16:21 PM 43.4792 -75.5533 230° Southwest 166 191 9,900 -574 Descending Boston Center
Wed 08:17:15 PM 43.4553 -75.5950 232° Southwest 165 190 9,000 -1,100 Descending Boston Center
Wed 08:17:21 PM 43.4444 -75.6089 223° Southwest 190 219 8,800 -968 Descending Boston Center
Wed 08:18:17 PM 43.4203 -75.6475 229° Southwest 178 205 8,000 -1,065 Descending Boston Center
Wed 08:18:23 PM 43.4094 -75.6614 223° Southwest 193 222 7,700 -1,091 Descending Boston Center
Wed 08:19:23 PM 43.3725 -75.7167 227° Southwest 185 213 6,800 -950 Descending Boston Center
Wed 08:20:23 PM 43.3378 -75.7689 228° Southwest 180 207 5,800 -942 Descending Boston Center
Wed 08:21:24 PM 43.3047 -75.8214 229° Southwest 177 204 4,900 -927 Descending Boston Center
Wed 08:22:26 PM 43.2742 -75.8681 228° Southwest 172 198 3,900 -829 Descending Boston Center
Wed 08:23:27 PM 43.2417 -75.9147 226° Southwest 173 199 3,200 -744 Descending Boston Center
Wed 08:24:27 PM 43.2050 -75.9525 217° Southwest 166 191 2,400 -590 Descending Boston Center
Wed 08:25:29 PM 43.1686 -75.9847 213° Southwest 161 185 2,000 -344 Descending Boston Center
Wed 08:26:29 PM 43.1364 -76.0142 214° Southwest 123 142 1,700 -350 Descending Boston Center
Wed 08:27:29 PM 43.1144 -76.0497 230° Southwest 114 131 1,300 -400 Descending Boston Center

Login

Don't have an account? Register now (free) for customized features, flight alerts, and more!